sensor_id;sensor_type;location;lat;lon;timestamp;temperature;humidity
24382;DHT22;12502;50.678;7.172;2023-10-19T00:00:39;11.00;99.90
24382;DHT22;12502;50.678;7.172;2023-10-19T00:05:43;11.20;99.90
24382;DHT22;12502;50.678;7.172;2023-10-19T00:10:45;11.30;99.90
24382;DHT22;12502;50.678;7.172;2023-10-19T00:15:49;11.40;99.90
24382;DHT22;12502;50.678;7.172;2023-10-19T00:20:54;11.40;99.90
24382;DHT22;12502;50.678;7.172;2023-10-19T00:25:59;11.40;99.90
24382;DHT22;12502;50.678;7.172;2023-10-19T00:31:01;11.50;99.90
24382;DHT22;12502;50.678;7.172;2023-10-19T00:36:09;11.50;99.90
24382;DHT22;12502;50.678;7.172;2023-10-19T00:41:14;11.50;99.90
24382;DHT22;12502;50.678;7.172;2023-10-19T00:46:23;11.40;99.90
24382;DHT22;12502;50.678;7.172;2023-10-19T00:51:52;11.40;99.90
24382;DHT22;12502;50.678;7.172;2023-10-19T00:56:57;11.30;99.90
24382;DHT22;12502;50.678;7.172;2023-10-19T01:02:04;11.30;99.90
24382;DHT22;12502;50.678;7.172;2023-10-19T01:07:19;11.40;99.90
24382;DHT22;12502;50.678;7.172;2023-10-19T01:12:24;11.40;99.90
24382;DHT22;12502;50.678;7.172;2023-10-19T01:17:26;11.40;99.90
24382;DHT22;12502;50.678;7.172;2023-10-19T01:22:28;11.40;99.90
24382;DHT22;12502;50.678;7.172;2023-10-19T01:27:30;11.40;99.90
24382;DHT22;12502;50.678;7.172;2023-10-19T01:32:32;11.40;99.90
24382;DHT22;12502;50.678;7.172;2023-10-19T01:37:36;11.40;99.90
24382;DHT22;12502;50.678;7.172;2023-10-19T01:42:42;11.30;99.90
24382;DHT22;12502;50.678;7.172;2023-10-19T01:47:44;11.20;99.90
24382;DHT22;12502;50.678;7.172;2023-10-19T01:52:45;11.30;99.90
24382;DHT22;12502;50.678;7.172;2023-10-19T01:57:47;11.30;99.90
24382;DHT22;12502;50.678;7.172;2023-10-19T02:02:49;11.20;99.90
24382;DHT22;12502;50.678;7.172;2023-10-19T02:07:51;11.20;99.90
24382;DHT22;12502;50.678;7.172;2023-10-19T02:12:54;11.20;99.90
24382;DHT22;12502;50.678;7.172;2023-10-19T02:17:56;11.30;99.90
24382;DHT22;12502;50.678;7.172;2023-10-19T02:23:01;11.30;99.90
24382;DHT22;12502;50.678;7.172;2023-10-19T02:28:05;11.30;99.90
24382;DHT22;12502;50.678;7.172;2023-10-19T02:33:08;11.30;99.90
24382;DHT22;12502;50.678;7.172;2023-10-19T02:38:10;11.40;99.90
24382;DHT22;12502;50.678;7.172;2023-10-19T02:43:12;11.40;99.90
24382;DHT22;12502;50.678;7.172;2023-10-19T02:48:14;11.40;99.90
24382;DHT22;12502;50.678;7.172;2023-10-19T02:53:16;11.40;99.90
24382;DHT22;12502;50.678;7.172;2023-10-19T02:58:20;11.50;99.90
24382;DHT22;12502;50.678;7.172;2023-10-19T03:03:22;11.60;99.90
24382;DHT22;12502;50.678;7.172;2023-10-19T03:08:23;11.70;99.90
24382;DHT22;12502;50.678;7.172;2023-10-19T03:13:27;11.70;99.90
24382;DHT22;12502;50.678;7.172;2023-10-19T03:18:29;11.70;99.90
24382;DHT22;12502;50.678;7.172;2023-10-19T03:23:31;11.70;99.90
24382;DHT22;12502;50.678;7.172;2023-10-19T03:28:35;11.80;99.90
24382;DHT22;12502;50.678;7.172;2023-10-19T03:33:39;11.90;99.90
24382;DHT22;12502;50.678;7.172;2023-10-19T03:38:42;11.90;99.90
24382;DHT22;12502;50.678;7.172;2023-10-19T03:43:45;11.80;99.90
24382;DHT22;12502;50.678;7.172;2023-10-19T03:48:47;11.70;99.90
24382;DHT22;12502;50.678;7.172;2023-10-19T03:53:48;11.70;99.90
24382;DHT22;12502;50.678;7.172;2023-10-19T03:58:56;11.70;99.90
24382;DHT22;12502;50.678;7.172;2023-10-19T04:04:00;11.60;99.90
24382;DHT22;12502;50.678;7.172;2023-10-19T04:09:03;11.70;99.90
24382;DHT22;12502;50.678;7.172;2023-10-19T04:14:07;11.80;99.90
24382;DHT22;12502;50.678;7.172;2023-10-19T04:19:10;11.80;99.90
24382;DHT22;12502;50.678;7.172;2023-10-19T04:24:13;11.80;99.90
24382;DHT22;12502;50.678;7.172;2023-10-19T04:29:14;11.90;99.90
24382;DHT22;12502;50.678;7.172;2023-10-19T04:34:18;11.90;99.90
24382;DHT22;12502;50.678;7.172;2023-10-19T04:39:22;11.90;99.90
24382;DHT22;12502;50.678;7.172;2023-10-19T04:44:24;12.00;99.90
24382;DHT22;12502;50.678;7.172;2023-10-19T04:49:26;12.10;99.90
24382;DHT22;12502;50.678;7.172;2023-10-19T04:54:27;12.10;99.90
24382;DHT22;12502;50.678;7.172;2023-10-19T04:59:29;12.10;99.90
24382;DHT22;12502;50.678;7.172;2023-10-19T05:04:34;12.20;99.90
24382;DHT22;12502;50.678;7.172;2023-10-19T05:09:38;12.20;99.90
24382;DHT22;12502;50.678;7.172;2023-10-19T05:14:41;12.30;99.90
24382;DHT22;12502;50.678;7.172;2023-10-19T05:19:43;12.30;99.90
24382;DHT22;12502;50.678;7.172;2023-10-19T05:24:45;12.30;99.90
24382;DHT22;12502;50.678;7.172;2023-10-19T05:29:48;12.20;99.90
24382;DHT22;12502;50.678;7.172;2023-10-19T05:34:49;12.20;99.90
24382;DHT22;12502;50.678;7.172;2023-10-19T05:39:51;12.30;99.90
24382;DHT22;12502;50.678;7.172;2023-10-19T05:44:53;12.30;99.90
24382;DHT22;12502;50.678;7.172;2023-10-19T05:49:55;12.30;99.90
24382;DHT22;12502;50.678;7.172;2023-10-19T05:54:56;12.20;99.90
24382;DHT22;12502;50.678;7.172;2023-10-19T05:59:59;12.20;99.90
24382;DHT22;12502;50.678;7.172;2023-10-19T06:05:02;12.10;99.90
24382;DHT22;12502;50.678;7.172;2023-10-19T06:10:06;12.20;99.90
24382;DHT22;12502;50.678;7.172;2023-10-19T06:15:08;12.30;99.90
24382;DHT22;12502;50.678;7.172;2023-10-19T06:20:12;12.40;99.90
24382;DHT22;12502;50.678;7.172;2023-10-19T06:25:26;12.40;99.90
24382;DHT22;12502;50.678;7.172;2023-10-19T06:30:28;12.50;99.90
24382;DHT22;12502;50.678;7.172;2023-10-19T06:35:30;12.50;99.90
24382;DHT22;12502;50.678;7.172;2023-10-19T06:40:35;12.60;99.90
24382;DHT22;12502;50.678;7.172;2023-10-19T06:45:39;12.60;99.90
24382;DHT22;12502;50.678;7.172;2023-10-19T06:50:41;12.70;99.90
24382;DHT22;12502;50.678;7.172;2023-10-19T06:55:48;12.70;99.90
24382;DHT22;12502;50.678;7.172;2023-10-19T07:00:49;12.70;99.90
24382;DHT22;12502;50.678;7.172;2023-10-19T07:05:57;12.80;99.90
24382;DHT22;12502;50.678;7.172;2023-10-19T07:11:00;12.90;99.90
24382;DHT22;12502;50.678;7.172;2023-10-19T07:16:01;12.90;99.90
24382;DHT22;12502;50.678;7.172;2023-10-19T07:21:07;12.90;99.90
24382;DHT22;12502;50.678;7.172;2023-10-19T07:26:11;13.00;99.90
24382;DHT22;12502;50.678;7.172;2023-10-19T07:31:15;13.00;99.90
24382;DHT22;12502;50.678;7.172;2023-10-19T07:36:17;13.00;99.90
24382;DHT22;12502;50.678;7.172;2023-10-19T07:41:20;13.10;99.90
24382;DHT22;12502;50.678;7.172;2023-10-19T07:46:21;13.20;99.90
24382;DHT22;12502;50.678;7.172;2023-10-19T07:51:23;13.20;99.90
24382;DHT22;12502;50.678;7.172;2023-10-19T07:56:25;13.40;99.90
24382;DHT22;12502;50.678;7.172;2023-10-19T08:01:27;13.40;99.90
24382;DHT22;12502;50.678;7.172;2023-10-19T08:06:30;13.50;99.90
24382;DHT22;12502;50.678;7.172;2023-10-19T08:11:32;13.50;99.90
24382;DHT22;12502;50.678;7.172;2023-10-19T08:16:35;13.60;99.90
24382;DHT22;12502;50.678;7.172;2023-10-19T08:21:37;13.90;99.90
24382;DHT22;12502;50.678;7.172;2023-10-19T08:26:39;14.30;99.90
24382;DHT22;12502;50.678;7.172;2023-10-19T08:31:43;14.80;99.90
24382;DHT22;12502;50.678;7.172;2023-10-19T08:36:45;14.90;99.90
24382;DHT22;12502;50.678;7.172;2023-10-19T08:41:48;15.30;99.90
24382;DHT22;12502;50.678;7.172;2023-10-19T08:46:54;15.30;99.90
24382;DHT22;12502;50.678;7.172;2023-10-19T08:51:59;15.40;99.90
24382;DHT22;12502;50.678;7.172;2023-10-19T08:57:01;16.10;99.90
24382;DHT22;12502;50.678;7.172;2023-10-19T09:02:03;16.10;99.90
24382;DHT22;12502;50.678;7.172;2023-10-19T09:07:07;16.30;99.90
24382;DHT22;12502;50.678;7.172;2023-10-19T09:12:18;16.60;99.90
24382;DHT22;12502;50.678;7.172;2023-10-19T09:17:27;16.60;99.90
24382;DHT22;12502;50.678;7.172;2023-10-19T09:22:34;16.80;99.90
24382;DHT22;12502;50.678;7.172;2023-10-19T09:27:38;16.80;99.90
24382;DHT22;12502;50.678;7.172;2023-10-19T09:32:40;16.90;99.90
24382;DHT22;12502;50.678;7.172;2023-10-19T09:37:42;17.00;99.90
24382;DHT22;12502;50.678;7.172;2023-10-19T09:42:44;17.40;99.90
24382;DHT22;12502;50.678;7.172;2023-10-19T09:47:50;17.50;99.90
24382;DHT22;12502;50.678;7.172;2023-10-19T09:52:52;17.70;99.90
24382;DHT22;12502;50.678;7.172;2023-10-19T09:57:59;17.70;99.90
24382;DHT22;12502;50.678;7.172;2023-10-19T10:03:05;17.70;99.90
24382;DHT22;12502;50.678;7.172;2023-10-19T10:08:40;17.90;99.90
24382;DHT22;12502;50.678;7.172;2023-10-19T10:13:35;18.30;99.90
24382;DHT22;12502;50.678;7.172;2023-10-19T10:18:37;18.20;99.90
24382;DHT22;12502;50.678;7.172;2023-10-19T10:24:22;18.20;99.90
24382;DHT22;12502;50.678;7.172;2023-10-19T10:29:15;18.10;99.90
24382;DHT22;12502;50.678;7.172;2023-10-19T10:39:39;17.70;99.90
24382;DHT22;12502;50.678;7.172;2023-10-19T10:44:45;17.60;99.90
24382;DHT22;12502;50.678;7.172;2023-10-19T10:49:51;17.50;99.90
24382;DHT22;12502;50.678;7.172;2023-10-19T10:54:53;17.30;99.90
24382;DHT22;12502;50.678;7.172;2023-10-19T11:00:05;17.10;99.90
24382;DHT22;12502;50.678;7.172;2023-10-19T11:05:10;17.10;99.90
24382;DHT22;12502;50.678;7.172;2023-10-19T11:10:13;16.90;99.90
24382;DHT22;12502;50.678;7.172;2023-10-19T11:15:20;16.70;99.90
24382;DHT22;12502;50.678;7.172;2023-10-19T11:20:23;16.60;99.90
24382;DHT22;12502;50.678;7.172;2023-10-19T11:25:26;16.60;99.90
24382;DHT22;12502;50.678;7.172;2023-10-19T11:30:32;16.50;99.90
24382;DHT22;12502;50.678;7.172;2023-10-19T11:35:34;16.40;99.90
24382;DHT22;12502;50.678;7.172;2023-10-19T11:40:36;16.40;99.90
24382;DHT22;12502;50.678;7.172;2023-10-19T11:45:38;16.40;99.90
24382;DHT22;12502;50.678;7.172;2023-10-19T11:50:40;16.30;99.90
24382;DHT22;12502;50.678;7.172;2023-10-19T11:55:48;16.20;99.90
24382;DHT22;12502;50.678;7.172;2023-10-19T12:00:50;16.20;99.90
24382;DHT22;12502;50.678;7.172;2023-10-19T12:05:53;16.20;99.90
24382;DHT22;12502;50.678;7.172;2023-10-19T12:10:57;16.20;99.90
24382;DHT22;12502;50.678;7.172;2023-10-19T12:15:59;16.10;99.90
24382;DHT22;12502;50.678;7.172;2023-10-19T12:21:01;16.20;99.90
24382;DHT22;12502;50.678;7.172;2023-10-19T12:26:04;16.30;99.90
24382;DHT22;12502;50.678;7.172;2023-10-19T12:31:12;16.30;99.90
24382;DHT22;12502;50.678;7.172;2023-10-19T12:36:16;16.30;99.90
24382;DHT22;12502;50.678;7.172;2023-10-19T12:41:32;16.30;99.90
24382;DHT22;12502;50.678;7.172;2023-10-19T12:46:34;16.20;99.90
24382;DHT22;12502;50.678;7.172;2023-10-19T12:51:38;16.10;99.90
24382;DHT22;12502;50.678;7.172;2023-10-19T12:56:43;16.20;99.90
24382;DHT22;12502;50.678;7.172;2023-10-19T13:01:45;16.20;99.90
24382;DHT22;12502;50.678;7.172;2023-10-19T13:06:50;16.20;99.90
24382;DHT22;12502;50.678;7.172;2023-10-19T13:11:53;16.20;99.90
24382;DHT22;12502;50.678;7.172;2023-10-19T13:16:54;16.20;99.90
24382;DHT22;12502;50.678;7.172;2023-10-19T13:21:56;16.30;99.90
24382;DHT22;12502;50.678;7.172;2023-10-19T13:27:02;16.30;99.90
24382;DHT22;12502;50.678;7.172;2023-10-19T13:32:04;16.40;99.90
24382;DHT22;12502;50.678;7.172;2023-10-19T13:37:07;16.40;99.90
24382;DHT22;12502;50.678;7.172;2023-10-19T13:42:09;16.20;99.90
24382;DHT22;12502;50.678;7.172;2023-10-19T13:47:11;16.10;99.90
24382;DHT22;12502;50.678;7.172;2023-10-19T13:52:13;16.10;99.90
24382;DHT22;12502;50.678;7.172;2023-10-19T13:57:16;16.00;99.90
24382;DHT22;12502;50.678;7.172;2023-10-19T14:02:18;16.00;99.90
24382;DHT22;12502;50.678;7.172;2023-10-19T14:07:21;15.90;99.90
24382;DHT22;12502;50.678;7.172;2023-10-19T14:12:22;15.90;99.90
24382;DHT22;12502;50.678;7.172;2023-10-19T14:17:24;15.90;99.90
24382;DHT22;12502;50.678;7.172;2023-10-19T14:22:26;15.90;99.90
24382;DHT22;12502;50.678;7.172;2023-10-19T14:27:29;15.90;99.90
24382;DHT22;12502;50.678;7.172;2023-10-19T14:32:31;15.90;99.90
24382;DHT22;12502;50.678;7.172;2023-10-19T14:37:34;15.80;99.90
24382;DHT22;12502;50.678;7.172;2023-10-19T14:42:37;15.90;99.90
24382;DHT22;12502;50.678;7.172;2023-10-19T14:47:45;15.90;99.90
24382;DHT22;12502;50.678;7.172;2023-10-19T14:52:48;15.90;99.90
24382;DHT22;12502;50.678;7.172;2023-10-19T14:57:51;16.00;99.90
24382;DHT22;12502;50.678;7.172;2023-10-19T15:02:56;16.00;99.90
24382;DHT22;12502;50.678;7.172;2023-10-19T15:07:58;16.00;99.90
24382;DHT22;12502;50.678;7.172;2023-10-19T15:13:00;16.20;99.90
24382;DHT22;12502;50.678;7.172;2023-10-19T15:18:02;16.20;99.90
24382;DHT22;12502;50.678;7.172;2023-10-19T15:23:05;16.20;99.90
24382;DHT22;12502;50.678;7.172;2023-10-19T15:28:07;16.30;99.90
24382;DHT22;12502;50.678;7.172;2023-10-19T15:33:09;16.40;99.90
24382;DHT22;12502;50.678;7.172;2023-10-19T15:38:11;16.40;99.90
24382;DHT22;12502;50.678;7.172;2023-10-19T15:43:13;16.40;99.90
24382;DHT22;12502;50.678;7.172;2023-10-19T15:48:28;16.30;99.90
24382;DHT22;12502;50.678;7.172;2023-10-19T15:53:52;16.20;99.90
24382;DHT22;12502;50.678;7.172;2023-10-19T15:59:00;16.10;99.90
24382;DHT22;12502;50.678;7.172;2023-10-19T16:15:15;15.80;99.90
24382;DHT22;12502;50.678;7.172;2023-10-19T16:20:52;15.60;99.90
24382;DHT22;12502;50.678;7.172;2023-10-19T16:26:23;15.60;99.90
24382;DHT22;12502;50.678;7.172;2023-10-19T16:31:42;15.60;99.90
24382;DHT22;12502;50.678;7.172;2023-10-19T16:37:10;15.40;99.90
24382;DHT22;12502;50.678;7.172;2023-10-19T16:42:11;15.30;99.90
24382;DHT22;12502;50.678;7.172;2023-10-19T16:47:19;15.20;99.90
24382;DHT22;12502;50.678;7.172;2023-10-19T16:52:37;15.20;99.90
24382;DHT22;12502;50.678;7.172;2023-10-19T16:57:44;15.20;99.90
24382;DHT22;12502;50.678;7.172;2023-10-19T17:03:41;15.10;99.90
24382;DHT22;12502;50.678;7.172;2023-10-19T17:09:20;15.00;99.90
24382;DHT22;12502;50.678;7.172;2023-10-19T17:14:51;15.00;99.90
24382;DHT22;12502;50.678;7.172;2023-10-19T17:20:34;14.90;99.90
24382;DHT22;12502;50.678;7.172;2023-10-19T17:26:17;14.90;99.90
24382;DHT22;12502;50.678;7.172;2023-10-19T17:31:25;14.90;99.90
24382;DHT22;12502;50.678;7.172;2023-10-19T17:37:02;14.90;99.90
24382;DHT22;12502;50.678;7.172;2023-10-19T17:48:26;14.80;99.90
24382;DHT22;12502;50.678;7.172;2023-10-19T17:53:30;14.90;99.90
24382;DHT22;12502;50.678;7.172;2023-10-19T17:58:32;14.90;99.90
24382;DHT22;12502;50.678;7.172;2023-10-19T18:03:34;14.90;99.90
24382;DHT22;12502;50.678;7.172;2023-10-19T18:08:37;14.90;99.90
24382;DHT22;12502;50.678;7.172;2023-10-19T18:13:39;14.80;99.90
24382;DHT22;12502;50.678;7.172;2023-10-19T18:18:41;14.70;99.90
24382;DHT22;12502;50.678;7.172;2023-10-19T18:23:52;14.80;99.90
24382;DHT22;12502;50.678;7.172;2023-10-19T18:28:54;14.70;99.90
24382;DHT22;12502;50.678;7.172;2023-10-19T18:33:56;14.70;99.90
24382;DHT22;12502;50.678;7.172;2023-10-19T18:39:05;14.80;99.90
24382;DHT22;12502;50.678;7.172;2023-10-19T18:44:08;14.80;99.90
24382;DHT22;12502;50.678;7.172;2023-10-19T18:49:10;14.80;99.90
24382;DHT22;12502;50.678;7.172;2023-10-19T18:54:12;14.70;99.90
24382;DHT22;12502;50.678;7.172;2023-10-19T18:59:18;14.80;99.90
24382;DHT22;12502;50.678;7.172;2023-10-19T19:04:20;14.70;99.90
24382;DHT22;12502;50.678;7.172;2023-10-19T19:09:23;14.70;99.90
24382;DHT22;12502;50.678;7.172;2023-10-19T19:14:25;14.90;99.90
24382;DHT22;12502;50.678;7.172;2023-10-19T19:19:50;14.90;99.90
24382;DHT22;12502;50.678;7.172;2023-10-19T19:24:51;14.90;99.90
24382;DHT22;12502;50.678;7.172;2023-10-19T19:29:54;14.90;99.90
24382;DHT22;12502;50.678;7.172;2023-10-19T19:34:56;14.90;99.90
24382;DHT22;12502;50.678;7.172;2023-10-19T19:39:58;14.90;99.90
24382;DHT22;12502;50.678;7.172;2023-10-19T19:45:00;14.90;99.90
24382;DHT22;12502;50.678;7.172;2023-10-19T19:50:02;14.90;99.90
24382;DHT22;12502;50.678;7.172;2023-10-19T19:55:04;14.90;99.90
24382;DHT22;12502;50.678;7.172;2023-10-19T20:00:08;14.80;99.90
24382;DHT22;12502;50.678;7.172;2023-10-19T20:05:19;14.70;99.90
24382;DHT22;12502;50.678;7.172;2023-10-19T20:10:22;14.70;99.90
24382;DHT22;12502;50.678;7.172;2023-10-19T20:15:24;14.70;99.90
24382;DHT22;12502;50.678;7.172;2023-10-19T20:20:25;14.60;99.90
24382;DHT22;12502;50.678;7.172;2023-10-19T20:25:30;14.70;99.90
24382;DHT22;12502;50.678;7.172;2023-10-19T20:30:32;14.70;99.90
24382;DHT22;12502;50.678;7.172;2023-10-19T20:35:35;14.70;99.90
24382;DHT22;12502;50.678;7.172;2023-10-19T20:40:37;14.80;99.90
24382;DHT22;12502;50.678;7.172;2023-10-19T20:45:40;14.70;99.90
24382;DHT22;12502;50.678;7.172;2023-10-19T20:50:42;14.70;99.90
24382;DHT22;12502;50.678;7.172;2023-10-19T20:55:44;14.70;99.90
24382;DHT22;12502;50.678;7.172;2023-10-19T21:00:46;14.70;99.90
24382;DHT22;12502;50.678;7.172;2023-10-19T21:05:48;14.70;99.90
24382;DHT22;12502;50.678;7.172;2023-10-19T21:10:50;14.70;99.90
24382;DHT22;12502;50.678;7.172;2023-10-19T21:15:52;14.70;99.90
24382;DHT22;12502;50.678;7.172;2023-10-19T21:20:56;14.80;99.90
24382;DHT22;12502;50.678;7.172;2023-10-19T21:26:00;14.80;99.90
24382;DHT22;12502;50.678;7.172;2023-10-19T21:31:02;14.80;99.90
24382;DHT22;12502;50.678;7.172;2023-10-19T21:36:04;14.80;99.90
24382;DHT22;12502;50.678;7.172;2023-10-19T21:41:06;14.90;99.90
24382;DHT22;12502;50.678;7.172;2023-10-19T21:46:08;14.80;99.90
24382;DHT22;12502;50.678;7.172;2023-10-19T21:51:09;14.80;99.90
24382;DHT22;12502;50.678;7.172;2023-10-19T21:56:11;14.70;99.90
24382;DHT22;12502;50.678;7.172;2023-10-19T22:01:16;14.80;99.90
24382;DHT22;12502;50.678;7.172;2023-10-19T22:06:23;14.90;99.90
24382;DHT22;12502;50.678;7.172;2023-10-19T22:11:25;14.90;99.90
24382;DHT22;12502;50.678;7.172;2023-10-19T22:16:28;15.00;99.90
24382;DHT22;12502;50.678;7.172;2023-10-19T22:21:29;14.90;99.90
24382;DHT22;12502;50.678;7.172;2023-10-19T22:26:33;14.90;99.90
24382;DHT22;12502;50.678;7.172;2023-10-19T22:31:35;14.90;99.90
24382;DHT22;12502;50.678;7.172;2023-10-19T22:36:37;15.00;99.90
24382;DHT22;12502;50.678;7.172;2023-10-19T22:41:38;15.10;99.90
24382;DHT22;12502;50.678;7.172;2023-10-19T22:46:40;15.00;99.90
24382;DHT22;12502;50.678;7.172;2023-10-19T22:51:42;15.10;99.90
24382;DHT22;12502;50.678;7.172;2023-10-19T22:56:43;15.00;99.90
24382;DHT22;12502;50.678;7.172;2023-10-19T23:01:45;15.10;99.90
24382;DHT22;12502;50.678;7.172;2023-10-19T23:06:47;15.10;99.90
24382;DHT22;12502;50.678;7.172;2023-10-19T23:11:48;15.00;99.90
24382;DHT22;12502;50.678;7.172;2023-10-19T23:16:55;15.10;99.90
24382;DHT22;12502;50.678;7.172;2023-10-19T23:22:01;15.20;99.90
24382;DHT22;12502;50.678;7.172;2023-10-19T23:27:03;15.10;99.90
24382;DHT22;12502;50.678;7.172;2023-10-19T23:32:05;15.10;99.90
24382;DHT22;12502;50.678;7.172;2023-10-19T23:37:07;15.10;99.90
24382;DHT22;12502;50.678;7.172;2023-10-19T23:42:12;15.00;99.90
24382;DHT22;12502;50.678;7.172;2023-10-19T23:47:15;15.00;99.90
24382;DHT22;12502;50.678;7.172;2023-10-19T23:52:18;15.10;99.90
24382;DHT22;12502;50.678;7.172;2023-10-19T23:57:19;15.00;99.90
